Portada
METAR-TAF:

METAR-TAF

Aeroports :

Denpasar, Indonèsia

latitud: 08-44-53S, longitud: 115-10-03E, altitud: 4 m

Observació

L'informe es va fer fa 27 minuts, a les 15:30 UTC
Vent 4 kt del Oest/Sud-Oest
Temperatura 28°C
Humitat 84%
Pressió 1010 hPa
Visibilitat 10 km o més
Escasses núvols a una alçada de 1700 ft
Cel ennuvolat a una alçada de 3300 ft

METAR: WADD 131530Z 25004KT 9999 FEW017 BKN033 28/25 Q1010 NOSIG

Hora: 22:57 (15:57 UTC)

Pronòstic

L'informe es va fer fa 4 hores i 57 minuts, a les 11:00 UTC
Pronòstic vàlid del 13 a les 12 UTC al 14 a les 12 UTC
Vent 10 kt del Oest
Visibilitat 10 km o més
Núvols disperses a una alçada de 1700 ft
Temporalment
l' 13 a les 18 UTC al 13 a les 22 UTC
Escasses núvols a una alçada de 1600 ft, Cumulonimbus.
Núvols disperses a una alçada de 1700 ft

TAF: WADD 131100Z 1312/1412 26010KT 9999 SCT017 TEMPO 1318/1322 FEW016CB SCT017

Observacions i pronòstics meteorològics de més de 4000 aeroports (METAR i TAF).

Les estacions disponibles són els punts grocs i vermells al mapa.

Posi el ratolí al punt desitjat per veure el nom de l'estació.

Feu clic per veure les observacions i els pronòstics meteorològics.

Per canviar el mapa: feu clic els botons verds amb una creu de color negre per apropar; al botó verd amb un guió per allunyar la imatge; o en les fletxes verdes per a mapes adjacents.


METAR-TAF: